FDUS

Musi Airport

Musi, Swaziland
METAR FDUS 190200Z AUTO 17004KT //// // ////// 21/04 Q0990
Observed Flight Rules
Sep-19 @ 02:00 UTC (2 hours ago)
Wind
170° at 4 knots
Temperatures Readings
Current 21°C / 70°F
Dewpoint 4°C / 39°F
Humidity 33%
Altimeter 29.23" Hg
Pressure 990 hPa
Elevation 956
METAR FDUS 190200Z AUTO 17004KT //// // ////// 21/04 Q0990
Observed Flight Rules
Sep-19 @ 02:00 UTC
(2 hours ago)
Wind
170° at 4 knots
Temperature Dewpoint
21°C / 70°F 4°C / 39°F
Humidity Altimeter Pressure
33% 29.23" Hg 990 hPa